Aviation Digital Data Service (ADDS)

Output produced by METARs form (0839 UTC 24 March 2019)
found at http://www.aviationweather.gov/metar/data/
 
METAR text: ZBSJ 240800Z 18006MPS CAVOK 20/M08 Q1010 NOSIG
Conditions at: ZBSJ (ZHENGDING , CN) observed 0800 UTC 24 March 2019
Temperature: 20.0°C (68°F)
Dewpoint: -8.0°C (18°F) [RH = 14%]
Pressure (altimeter): 29.82 inches Hg (1010.0 mb)
Winds: from the S (180 degrees) at 14 MPH (12 knots; 6.2 m/s)
Visibility: 6 or more miles (10+ km)
Ceiling: ceiling and visibility are OK
Clouds: unknown
Weather: no significant weather observed at this time

METAR text: ZBSJ 240700Z 16006MPS CAVOK 20/M06 Q1011 NOSIG
Conditions at: ZBSJ (ZHENGDING , CN) observed 0700 UTC 24 March 2019
Temperature: 20.0°C (68°F)
Dewpoint: -6.0°C (21°F) [RH = 17%]
Pressure (altimeter): 29.85 inches Hg (1011.0 mb)
Winds: from the SSE (160 degrees) at 14 MPH (12 knots; 6.2 m/s)
Visibility: 6 or more miles (10+ km)
Ceiling: ceiling and visibility are OK
Clouds: unknown
Weather: no significant weather observed at this time

METAR text: ZBSJ 240600Z 17004MPS CAVOK 19/M07 Q1012 NOSIG
Conditions at: ZBSJ (ZHENGDING , CN) observed 0600 UTC 24 March 2019
Temperature: 19.0°C (66°F)
Dewpoint: -7.0°C (19°F) [RH = 16%]
Pressure (altimeter): 29.88 inches Hg (1012.0 mb)
Winds: from the S (170 degrees) at 9 MPH (8 knots; 4.1 m/s)
Visibility: 6 or more miles (10+ km)
Ceiling: ceiling and visibility are OK
Clouds: unknown
Weather: no significant weather observed at this time

METAR text: ZBSJ 240500Z 19004MPS 150V220 CAVOK 19/M09 Q1013 NOSIG
Conditions at: ZBSJ (ZHENGDING , CN) observed 0500 UTC 24 March 2019
Temperature: 19.0°C (66°F)
Dewpoint: -9.0°C (16°F) [RH = 14%]
Pressure (altimeter): 29.91 inches Hg (1013.0 mb)
Winds: from the S (190 degrees) at 9 MPH (8 knots; 4.1 m/s)
Visibility: 6 or more miles (10+ km)
Ceiling: ceiling and visibility are OK
Clouds: unknown
Weather: no significant weather observed at this time

METAR text: ZBSJ 240400Z 19003MPS 150V240 CAVOK 18/M10 Q1015 NOSIG
Conditions at: ZBSJ (ZHENGDING , CN) observed 0400 UTC 24 March 2019
Temperature: 18.0°C (64°F)
Dewpoint: -10.0°C (14°F) [RH = 14%]
Pressure (altimeter): 29.97 inches Hg (1015.0 mb)
Winds: from the S (190 degrees) at 7 MPH (6 knots; 3.1 m/s)
Visibility: 6 or more miles (10+ km)
Ceiling: ceiling and visibility are OK
Clouds: unknown
Weather: no significant weather observed at this time

METAR text: ZBSJ 240300Z 20003MPS 170V240 CAVOK 15/M07 Q1016 NOSIG
Conditions at: ZBSJ (ZHENGDING , CN) observed 0300 UTC 24 March 2019
Temperature: 15.0°C (59°F)
Dewpoint: -7.0°C (19°F) [RH = 21%]
Pressure (altimeter): 30.00 inches Hg (1016.0 mb)
Winds: from the SSW (200 degrees) at 7 MPH (6 knots; 3.1 m/s)
Visibility: 6 or more miles (10+ km)
Ceiling: ceiling and visibility are OK
Clouds: unknown
Weather: no significant weather observed at this time

METAR text: ZBSJ 240200Z VRB02MPS CAVOK 12/M09 Q1017 NOSIG
Conditions at: ZBSJ (ZHENGDING , CN) observed 0200 UTC 24 March 2019
Temperature: 12.0°C (54°F)
Dewpoint: -9.0°C (16°F) [RH = 22%]
Pressure (altimeter): 30.03 inches Hg (1017.0 mb)
Winds: variable direction winds at 5 MPH (4 knots; 2.1 m/s)
Visibility: 6 or more miles (10+ km)
Ceiling: ceiling and visibility are OK
Clouds: unknown
Weather: no significant weather observed at this time

METAR text: ZBSJ 240100Z 25002MPS 220V290 CAVOK 08/M10 Q1018 NOSIG
Conditions at: ZBSJ (ZHENGDING , CN) observed 0100 UTC 24 March 2019
Temperature: 8.0°C (46°F)
Dewpoint: -10.0°C (14°F) [RH = 27%]
Pressure (altimeter): 30.06 inches Hg (1018.0 mb)
Winds: from the WSW (250 degrees) at 5 MPH (4 knots; 2.1 m/s)
Visibility: 6 or more miles (10+ km)
Ceiling: ceiling and visibility are OK
Clouds: unknown
Weather: no significant weather observed at this time

METAR text: ZBSJ 240000Z VRB01MPS CAVOK 05/M10 Q1018 NOSIG
Conditions at: ZBSJ (ZHENGDING , CN) observed 0000 UTC 24 March 2019
Temperature: 5.0°C (41°F)
Dewpoint: -10.0°C (14°F) [RH = 33%]
Pressure (altimeter): 30.06 inches Hg (1018.0 mb)
Winds: variable direction winds at 2 MPH (2 knots; 1.0 m/s)
Visibility: 6 or more miles (10+ km)
Ceiling: ceiling and visibility are OK
Clouds: unknown
Weather: no significant weather observed at this time

METAR text: ZBSJ 232300Z 00000MPS CAVOK M01/M07 Q1019 NOSIG
Conditions at: ZBSJ (ZHENGDING , CN) observed 2300 UTC 23 March 2019
Temperature: -1.0°C (30°F)
Dewpoint: -7.0°C (19°F) [RH = 64%]
Pressure (altimeter): 30.09 inches Hg (1019.0 mb)
Winds: calm
Visibility: 6 or more miles (10+ km)
Ceiling: ceiling and visibility are OK
Clouds: unknown
Weather: no significant weather observed at this time

METAR text: ZBSJ 232200Z 24001MPS CAVOK M02/M07 Q1019 NOSIG
Conditions at: ZBSJ (ZHENGDING , CN) observed 2200 UTC 23 March 2019
Temperature: -2.0°C (28°F)
Dewpoint: -7.0°C (19°F) [RH = 69%]
Pressure (altimeter): 30.09 inches Hg (1019.0 mb)
Winds: from the WSW (240 degrees) at 2 MPH (2 knots; 1.0 m/s)
Visibility: 6 or more miles (10+ km)
Ceiling: ceiling and visibility are OK
Clouds: unknown
Weather: no significant weather observed at this time

METAR text: ZBSJ 232100Z VRB01MPS CAVOK M01/M08 Q1019 NOSIG
Conditions at: ZBSJ (ZHENGDING , CN) observed 2100 UTC 23 March 2019
Temperature: -1.0°C (30°F)
Dewpoint: -8.0°C (18°F) [RH = 59%]
Pressure (altimeter): 30.09 inches Hg (1019.0 mb)
Winds: variable direction winds at 2 MPH (2 knots; 1.0 m/s)
Visibility: 6 or more miles (10+ km)
Ceiling: ceiling and visibility are OK
Clouds: unknown
Weather: no significant weather observed at this time

METAR text: ZBSJ 232000Z 23001MPS CAVOK 02/M08 Q1020 NOSIG
Conditions at: ZBSJ (ZHENGDING , CN) observed 2000 UTC 23 March 2019
Temperature: 2.0°C (36°F)
Dewpoint: -8.0°C (18°F) [RH = 47%]
Pressure (altimeter): 30.12 inches Hg (1020.0 mb)
Winds: from the SW (230 degrees) at 2 MPH (2 knots; 1.0 m/s)
Visibility: 6 or more miles (10+ km)
Ceiling: ceiling and visibility are OK
Clouds: unknown
Weather: no significant weather observed at this time

METAR text: ZBSJ 231900Z 25002MPS 230V320 CAVOK 01/M09 Q1020 NOSIG
Conditions at: ZBSJ (ZHENGDING , CN) observed 1900 UTC 23 March 2019
Temperature: 1.0°C (34°F)
Dewpoint: -9.0°C (16°F) [RH = 47%]
Pressure (altimeter): 30.12 inches Hg (1020.0 mb)
Winds: from the WSW (250 degrees) at 5 MPH (4 knots; 2.1 m/s)
Visibility: 6 or more miles (10+ km)
Ceiling: ceiling and visibility are OK
Clouds: unknown
Weather: no significant weather observed at this time

METAR text: ZBSJ 231800Z 18002MPS CAVOK 01/M09 Q1021 NOSIG
Conditions at: ZBSJ (ZHENGDING , CN) observed 1800 UTC 23 March 2019
Temperature: 1.0°C (34°F)
Dewpoint: -9.0°C (16°F) [RH = 47%]
Pressure (altimeter): 30.15 inches Hg (1021.0 mb)
Winds: from the S (180 degrees) at 5 MPH (4 knots; 2.1 m/s)
Visibility: 6 or more miles (10+ km)
Ceiling: ceiling and visibility are OK
Clouds: unknown
Weather: no significant weather observed at this time

METAR text: ZBSJ 231700Z 18002MPS CAVOK 04/M09 Q1022 NOSIG
Conditions at: ZBSJ (ZHENGDING , CN) observed 1700 UTC 23 March 2019
Temperature: 4.0°C (39°F)
Dewpoint: -9.0°C (16°F) [RH = 38%]
Pressure (altimeter): 30.18 inches Hg (1022.0 mb)
Winds: from the S (180 degrees) at 5 MPH (4 knots; 2.1 m/s)
Visibility: 6 or more miles (10+ km)
Ceiling: ceiling and visibility are OK
Clouds: unknown
Weather: no significant weather observed at this time

METAR text: ZBSJ 231600Z VRB01MPS CAVOK 03/M08 Q1022 NOSIG
Conditions at: ZBSJ (ZHENGDING , CN) observed 1600 UTC 23 March 2019
Temperature: 3.0°C (37°F)
Dewpoint: -8.0°C (18°F) [RH = 44%]
Pressure (altimeter): 30.18 inches Hg (1022.0 mb)
Winds: variable direction winds at 2 MPH (2 knots; 1.0 m/s)
Visibility: 6 or more miles (10+ km)
Ceiling: ceiling and visibility are OK
Clouds: unknown
Weather: no significant weather observed at this time

METAR text: ZBSJ 231500Z 17003MPS CAVOK 05/M09 Q1023 NOSIG
Conditions at: ZBSJ (ZHENGDING , CN) observed 1500 UTC 23 March 2019
Temperature: 5.0°C (41°F)
Dewpoint: -9.0°C (16°F) [RH = 35%]
Pressure (altimeter): 30.21 inches Hg (1023.0 mb)
Winds: from the S (170 degrees) at 7 MPH (6 knots; 3.1 m/s)
Visibility: 6 or more miles (10+ km)
Ceiling: ceiling and visibility are OK
Clouds: unknown
Weather: no significant weather observed at this time

METAR text: ZBSJ 231400Z 17003MPS CAVOK 06/M09 Q1024 NOSIG
Conditions at: ZBSJ (ZHENGDING , CN) observed 1400 UTC 23 March 2019
Temperature: 6.0°C (43°F)
Dewpoint: -9.0°C (16°F) [RH = 33%]
Pressure (altimeter): 30.24 inches Hg (1024.0 mb)
Winds: from the S (170 degrees) at 7 MPH (6 knots; 3.1 m/s)
Visibility: 6 or more miles (10+ km)
Ceiling: ceiling and visibility are OK
Clouds: unknown
Weather: no significant weather observed at this time

METAR text: ZBSJ 231300Z 19004MPS CAVOK 08/M09 Q1024 NOSIG
Conditions at: ZBSJ (ZHENGDING , CN) observed 1300 UTC 23 March 2019
Temperature: 8.0°C (46°F)
Dewpoint: -9.0°C (16°F) [RH = 29%]
Pressure (altimeter): 30.24 inches Hg (1024.0 mb)
Winds: from the S (190 degrees) at 9 MPH (8 knots; 4.1 m/s)
Visibility: 6 or more miles (10+ km)
Ceiling: ceiling and visibility are OK
Clouds: unknown
Weather: no significant weather observed at this time

METAR text: ZBSJ 231200Z 18005MPS CAVOK 08/M10 Q1024 NOSIG
Conditions at: ZBSJ (ZHENGDING , CN) observed 1200 UTC 23 March 2019
Temperature: 8.0°C (46°F)
Dewpoint: -10.0°C (14°F) [RH = 27%]
Pressure (altimeter): 30.24 inches Hg (1024.0 mb)
Winds: from the S (180 degrees) at 12 MPH (10 knots; 5.1 m/s)
Visibility: 6 or more miles (10+ km)
Ceiling: ceiling and visibility are OK
Clouds: unknown
Weather: no significant weather observed at this time

METAR text: ZBSJ 231100Z 17005MPS CAVOK 09/M10 Q1024 NOSIG
Conditions at: ZBSJ (ZHENGDING , CN) observed 1100 UTC 23 March 2019
Temperature: 9.0°C (48°F)
Dewpoint: -10.0°C (14°F) [RH = 25%]
Pressure (altimeter): 30.24 inches Hg (1024.0 mb)
Winds: from the S (170 degrees) at 12 MPH (10 knots; 5.1 m/s)
Visibility: 6 or more miles (10+ km)
Ceiling: ceiling and visibility are OK
Clouds: unknown
Weather: no significant weather observed at this time

METAR text: ZBSJ 231000Z 16004MPS CAVOK 10/M11 Q1024 NOSIG
Conditions at: ZBSJ (ZHENGDING , CN) observed 1000 UTC 23 March 2019
Temperature: 10.0°C (50°F)
Dewpoint: -11.0°C (12°F) [RH = 22%]
Pressure (altimeter): 30.24 inches Hg (1024.0 mb)
Winds: from the SSE (160 degrees) at 9 MPH (8 knots; 4.1 m/s)
Visibility: 6 or more miles (10+ km)
Ceiling: ceiling and visibility are OK
Clouds: unknown
Weather: no significant weather observed at this time

METAR text: ZBSJ 230900Z 17004MPS 140V200 CAVOK 12/M15 Q1024 NOSIG
Conditions at: ZBSJ (ZHENGDING , CN) observed 0900 UTC 23 March 2019
Temperature: 12.0°C (54°F)
Dewpoint: -15.0°C ( 5°F) [RH = 14%]
Pressure (altimeter): 30.24 inches Hg (1024.0 mb)
Winds: from the S (170 degrees) at 9 MPH (8 knots; 4.1 m/s)
Visibility: 6 or more miles (10+ km)
Ceiling: ceiling and visibility are OK
Clouds: unknown
Weather: no significant weather observed at this time

METAR text: ZBSJ 230800Z 17003MPS 140V210 CAVOK 12/M16 Q1025 NOSIG
Conditions at: ZBSJ (ZHENGDING , CN) observed 0800 UTC 23 March 2019
Temperature: 12.0°C (54°F)
Dewpoint: -16.0°C ( 3°F) [RH = 13%]
Pressure (altimeter): 30.27 inches Hg (1025.0 mb)
Winds: from the S (170 degrees) at 7 MPH (6 knots; 3.1 m/s)
Visibility: 6 or more miles (10+ km)
Ceiling: ceiling and visibility are OK
Clouds: unknown
Weather: no significant weather observed at this time

METAR text: ZBSJ 230700Z 12003MPS 070V190 CAVOK 12/M17 Q1026 NOSIG
Conditions at: ZBSJ (ZHENGDING , CN) observed 0700 UTC 23 March 2019
Temperature: 12.0°C (54°F)
Dewpoint: -17.0°C ( 1°F) [RH = 12%]
Pressure (altimeter): 30.30 inches Hg (1026.0 mb)
Winds: from the ESE (120 degrees) at 7 MPH (6 knots; 3.1 m/s)
Visibility: 6 or more miles (10+ km)
Ceiling: ceiling and visibility are OK
Clouds: unknown
Weather: no significant weather observed at this time

METAR text: ZBSJ 230600Z VRB02MPS CAVOK 11/M18 Q1028 NOSIG
Conditions at: ZBSJ (ZHENGDING , CN) observed 0600 UTC 23 March 2019
Temperature: 11.0°C (52°F)
Dewpoint: -18.0°C (-0°F) [RH = 11%]
Pressure (altimeter): 30.35 inches Hg (1028.0 mb)
Winds: variable direction winds at 5 MPH (4 knots; 2.1 m/s)
Visibility: 6 or more miles (10+ km)
Ceiling: ceiling and visibility are OK
Clouds: unknown
Weather: no significant weather observed at this time

METAR text: ZBSJ 230500Z VRB02MPS CAVOK 11/M18 Q1029 NOSIG
Conditions at: ZBSJ (ZHENGDING , CN) observed 0500 UTC 23 March 2019
Temperature: 11.0°C (52°F)
Dewpoint: -18.0°C (-0°F) [RH = 11%]
Pressure (altimeter): 30.38 inches Hg (1029.0 mb)
Winds: variable direction winds at 5 MPH (4 knots; 2.1 m/s)
Visibility: 6 or more miles (10+ km)
Ceiling: ceiling and visibility are OK
Clouds: unknown
Weather: no significant weather observed at this time

METAR text: ZBSJ 230400Z VRB02MPS CAVOK 10/M22 Q1030 NOSIG
Conditions at: ZBSJ (ZHENGDING , CN) observed 0400 UTC 23 March 2019
Temperature: 10.0°C (50°F)
Dewpoint: -22.0°C (-8°F) [RH =  9%]
Pressure (altimeter): 30.41 inches Hg (1030.0 mb)
Winds: variable direction winds at 5 MPH (4 knots; 2.1 m/s)
Visibility: 6 or more miles (10+ km)
Ceiling: ceiling and visibility are OK
Clouds: unknown
Weather: no significant weather observed at this time

METAR text: ZBSJ 230300Z 08002MPS 020V130 CAVOK 09/M20 Q1032 NOSIG
Conditions at: ZBSJ (ZHENGDING , CN) observed 0300 UTC 23 March 2019
Temperature: 9.0°C (48°F)
Dewpoint: -20.0°C (-4°F) [RH = 11%]
Pressure (altimeter): 30.47 inches Hg (1032.0 mb)
Winds: from the E (80 degrees) at 5 MPH (4 knots; 2.1 m/s)
Visibility: 6 or more miles (10+ km)
Ceiling: ceiling and visibility are OK
Clouds: unknown
Weather: no significant weather observed at this time

METAR text: ZBSJ 230200Z 06005MPS 030V090 CAVOK 08/M20 Q1032 NOSIG
Conditions at: ZBSJ (ZHENGDING , CN) observed 0200 UTC 23 March 2019
Temperature: 8.0°C (46°F)
Dewpoint: -20.0°C (-4°F) [RH = 12%]
Pressure (altimeter): 30.47 inches Hg (1032.0 mb)
Winds: from the ENE (60 degrees) at 12 MPH (10 knots; 5.1 m/s)
Visibility: 6 or more miles (10+ km)
Ceiling: ceiling and visibility are OK
Clouds: unknown
Weather: no significant weather observed at this time

METAR text: ZBSJ 230100Z 02005MPS 340V040 CAVOK 08/M19 Q1032 NOSIG
Conditions at: ZBSJ (ZHENGDING , CN) observed 0100 UTC 23 March 2019
Temperature: 8.0°C (46°F)
Dewpoint: -19.0°C (-2°F) [RH = 13%]
Pressure (altimeter): 30.47 inches Hg (1032.0 mb)
Winds: from the NNE (20 degrees) at 12 MPH (10 knots; 5.1 m/s)
Visibility: 6 or more miles (10+ km)
Ceiling: ceiling and visibility are OK
Clouds: unknown
Weather: no significant weather observed at this time

METAR text: ZBSJ 230000Z 03004MPS CAVOK 06/M18 Q1032 NOSIG
Conditions at: ZBSJ (ZHENGDING , CN) observed 0000 UTC 23 March 2019
Temperature: 6.0°C (43°F)
Dewpoint: -18.0°C (-0°F) [RH = 16%]
Pressure (altimeter): 30.47 inches Hg (1032.0 mb)
Winds: from the NNE (30 degrees) at 9 MPH (8 knots; 4.1 m/s)
Visibility: 6 or more miles (10+ km)
Ceiling: ceiling and visibility are OK
Clouds: unknown
Weather: no significant weather observed at this time

METAR text: ZBSJ 222300Z 01004MPS CAVOK 05/M18 Q1031 NOSIG
Conditions at: ZBSJ (ZHENGDING , CN) observed 2300 UTC 22 March 2019
Temperature: 5.0°C (41°F)
Dewpoint: -18.0°C (-0°F) [RH = 17%]
Pressure (altimeter): 30.44 inches Hg (1031.0 mb)
Winds: from the N (10 degrees) at 9 MPH (8 knots; 4.1 m/s)
Visibility: 6 or more miles (10+ km)
Ceiling: ceiling and visibility are OK
Clouds: unknown
Weather: no significant weather observed at this time

METAR text: ZBSJ 222200Z 02004MPS CAVOK 05/M17 Q1030 NOSIG
Conditions at: ZBSJ (ZHENGDING , CN) observed 2200 UTC 22 March 2019
Temperature: 5.0°C (41°F)
Dewpoint: -17.0°C ( 1°F) [RH = 19%]
Pressure (altimeter): 30.41 inches Hg (1030.0 mb)
Winds: from the NNE (20 degrees) at 9 MPH (8 knots; 4.1 m/s)
Visibility: 6 or more miles (10+ km)
Ceiling: ceiling and visibility are OK
Clouds: unknown
Weather: no significant weather observed at this time

METAR text: ZBSJ 222100Z 35007MPS CAVOK 06/M16 Q1028 NOSIG
Conditions at: ZBSJ (ZHENGDING , CN) observed 2100 UTC 22 March 2019
Temperature: 6.0°C (43°F)
Dewpoint: -16.0°C ( 3°F) [RH = 19%]
Pressure (altimeter): 30.35 inches Hg (1028.0 mb)
Winds: from the N (350 degrees) at 16 MPH (14 knots; 7.2 m/s)
Visibility: 6 or more miles (10+ km)
Ceiling: ceiling and visibility are OK
Clouds: unknown
Weather: no significant weather observed at this time

Forecast for: ZBSJ (ZHENGDING , CN)
Text: TAF ZBSJ 240102Z 2406/2506 18004MPS CAVOK TX20/2407Z TN05/2421Z
Forecast period: 0600 UTC 24 March 2019 to 0600 UTC 25 March 2019
Forecast type: FROM: standard forecast or significant change
Winds: from the S (180 degrees) at 9 MPH (8 knots; 4.1 m/s)
Visibility: 6 or more miles 10+ km)
Ceiling: unknown
Clouds: missing
Weather: no significant weather forecast for this period